Terminal Aerodrome Forecast
Issued by NWS

Home | Current Version | Previous Version | Text Only | Print | Product List | Glossary On
Versions: 1 2 3 4 5 6 7 8 9 10 11 12 13 14 15 16 17 18 19 20 21 22 23 24 25 26 27 28 29 30 31 32 33 34 35 36 37 38 39 40 41 42 43 44 45 46 47 48 49 50
000
FTUS42 KMFL 300910 AAB
TAFTMB
TAF AMD
KTMB 300910Z 3009/3106 12015KT P6SM SHRA VCTS SCT030CB BKN060
      TEMPO 3009/3010 12015G25KT TSRA BKN035CB
     FM301400 15020KT P6SM SHRA VCTS SCT025CB BKN050
     FM301700 16015KT P6SM SHRA VCTS SCT025CB BKN050
     FM302200 16010KT P6SM SHRA VCTS SCT025CB PROB30 3023/3105
      VRB10G20KT TSRA BKN025CB=

USA.gov is the U.S. government's official web portal to all federal, state and local government web resources and services.